sensor_id;sensor_type;location;lat;lon;timestamp;P1;durP1;ratioP1;P2;durP2;ratioP2
28926;SDS011;16038;47.692;9.400;2022-11-11T00:01:06;11.73;;;7.78;;
28926;SDS011;16038;47.692;9.400;2022-11-11T00:03:35;12.65;;;7.65;;
28926;SDS011;16038;47.692;9.400;2022-11-11T00:06:01;10.02;;;7.45;;
28926;SDS011;16038;47.692;9.400;2022-11-11T00:08:29;12.75;;;8.18;;
28926;SDS011;16038;47.692;9.400;2022-11-11T00:11:01;15.63;;;7.65;;
28926;SDS011;16038;47.692;9.400;2022-11-11T00:13:44;11.32;;;7.05;;
28926;SDS011;16038;47.692;9.400;2022-11-11T00:16:14;13.18;;;8.57;;
28926;SDS011;16038;47.692;9.400;2022-11-11T00:18:41;10.05;;;6.55;;
28926;SDS011;16038;47.692;9.400;2022-11-11T00:21:26;10.95;;;6.60;;
28926;SDS011;16038;47.692;9.400;2022-11-11T00:27:08;9.13;;;6.55;;
28926;SDS011;16038;47.692;9.400;2022-11-11T00:29:34;11.73;;;7.45;;
28926;SDS011;16038;47.692;9.400;2022-11-11T00:32:00;9.82;;;7.40;;
28926;SDS011;16038;47.692;9.400;2022-11-11T00:34:44;13.93;;;8.27;;
28926;SDS011;16038;47.692;9.400;2022-11-11T00:37:29;12.02;;;8.23;;
28926;SDS011;16038;47.692;9.400;2022-11-11T00:39:56;14.73;;;8.30;;
28926;SDS011;16038;47.692;9.400;2022-11-11T00:42:21;13.00;;;8.50;;
28926;SDS011;16038;47.692;9.400;2022-11-11T00:44:47;11.40;;;7.35;;
28926;SDS011;16038;47.692;9.400;2022-11-11T00:47:12;11.77;;;7.68;;
28926;SDS011;16038;47.692;9.400;2022-11-11T00:49:56;10.88;;;6.95;;
28926;SDS011;16038;47.692;9.400;2022-11-11T00:52:40;12.23;;;7.20;;
28926;SDS011;16038;47.692;9.400;2022-11-11T00:55:06;10.25;;;7.20;;
28926;SDS011;16038;47.692;9.400;2022-11-11T00:57:31;12.25;;;7.35;;
28926;SDS011;16038;47.692;9.400;2022-11-11T00:59:57;9.00;;;7.00;;
28926;SDS011;16038;47.692;9.400;2022-11-11T01:02:22;13.90;;;7.28;;
28926;SDS011;16038;47.692;9.400;2022-11-11T01:04:48;9.00;;;6.75;;
28926;SDS011;16038;47.692;9.400;2022-11-11T01:07:13;11.55;;;7.00;;
28926;SDS011;16038;47.692;9.400;2022-11-11T01:09:38;12.43;;;8.40;;
28926;SDS011;16038;47.692;9.400;2022-11-11T01:12:04;10.57;;;7.80;;
28926;SDS011;16038;47.692;9.400;2022-11-11T01:14:29;9.90;;;6.97;;
28926;SDS011;16038;47.692;9.400;2022-11-11T01:16:55;15.13;;;7.85;;
28926;SDS011;16038;47.692;9.400;2022-11-11T01:19:20;10.77;;;7.28;;
28926;SDS011;16038;47.692;9.400;2022-11-11T01:21:46;11.60;;;7.15;;
28926;SDS011;16038;47.692;9.400;2022-11-11T01:24:11;11.38;;;6.20;;
28926;SDS011;16038;47.692;9.400;2022-11-11T01:26:36;11.65;;;6.80;;
28926;SDS011;16038;47.692;9.400;2022-11-11T01:29:02;13.43;;;6.80;;
28926;SDS011;16038;47.692;9.400;2022-11-11T01:31:27;11.25;;;6.68;;
28926;SDS011;16038;47.692;9.400;2022-11-11T01:33:53;11.70;;;6.95;;
28926;SDS011;16038;47.692;9.400;2022-11-11T01:36:20;10.48;;;6.25;;
28926;SDS011;16038;47.692;9.400;2022-11-11T01:38:48;8.93;;;6.20;;
28926;SDS011;16038;47.692;9.400;2022-11-11T01:41:17;8.77;;;5.82;;
28926;SDS011;16038;47.692;9.400;2022-11-11T01:44:02;8.95;;;6.25;;
28926;SDS011;16038;47.692;9.400;2022-11-11T01:46:36;12.00;;;6.15;;
28926;SDS011;16038;47.692;9.400;2022-11-11T01:57:18;9.70;;;6.05;;
28926;SDS011;16038;47.692;9.400;2022-11-11T01:59:49;7.38;;;5.43;;
28926;SDS011;16038;47.692;9.400;2022-11-11T02:02:32;9.82;;;6.00;;
28926;SDS011;16038;47.692;9.400;2022-11-11T02:05:03;8.45;;;6.32;;
28926;SDS011;16038;47.692;9.400;2022-11-11T02:07:49;10.10;;;6.05;;
28926;SDS011;16038;47.692;9.400;2022-11-11T02:10:19;9.05;;;5.80;;
28926;SDS011;16038;47.692;9.400;2022-11-11T02:12:47;11.43;;;6.15;;
28926;SDS011;16038;47.692;9.400;2022-11-11T02:15:31;8.30;;;5.15;;
28926;SDS011;16038;47.692;9.400;2022-11-11T02:17:57;10.95;;;5.75;;
28926;SDS011;16038;47.692;9.400;2022-11-11T02:20:25;13.55;;;6.13;;
28926;SDS011;16038;47.692;9.400;2022-11-11T02:25:32;10.40;;;7.15;;
28926;SDS011;16038;47.692;9.400;2022-11-11T02:28:02;7.40;;;4.55;;
28926;SDS011;16038;47.692;9.400;2022-11-11T02:30:30;9.43;;;6.15;;
28926;SDS011;16038;47.692;9.400;2022-11-11T02:32:55;7.90;;;6.10;;
28926;SDS011;16038;47.692;9.400;2022-11-11T02:35:25;10.68;;;6.50;;
28926;SDS011;16038;47.692;9.400;2022-11-11T02:37:55;9.15;;;5.40;;
28926;SDS011;16038;47.692;9.400;2022-11-11T02:42:59;10.90;;;5.85;;
28926;SDS011;16038;47.692;9.400;2022-11-11T02:45:24;10.30;;;5.47;;
28926;SDS011;16038;47.692;9.400;2022-11-11T02:47:50;10.10;;;5.30;;
28926;SDS011;16038;47.692;9.400;2022-11-11T02:50:15;8.73;;;5.43;;
28926;SDS011;16038;47.692;9.400;2022-11-11T02:52:41;8.70;;;5.80;;
28926;SDS011;16038;47.692;9.400;2022-11-11T02:55:06;8.23;;;5.10;;
28926;SDS011;16038;47.692;9.400;2022-11-11T02:57:32;11.25;;;5.95;;
28926;SDS011;16038;47.692;9.400;2022-11-11T02:59:58;8.23;;;5.18;;
28926;SDS011;16038;47.692;9.400;2022-11-11T03:02:25;8.75;;;6.05;;
28926;SDS011;16038;47.692;9.400;2022-11-11T03:04:55;12.07;;;6.68;;
28926;SDS011;16038;47.692;9.400;2022-11-11T03:07:22;9.02;;;7.10;;
28926;SDS011;16038;47.692;9.400;2022-11-11T03:09:48;10.07;;;7.18;;
28926;SDS011;16038;47.692;9.400;2022-11-11T03:12:14;11.13;;;6.68;;
28926;SDS011;16038;47.692;9.400;2022-11-11T03:14:40;11.15;;;6.47;;
28926;SDS011;16038;47.692;9.400;2022-11-11T03:17:05;10.30;;;6.78;;
28926;SDS011;16038;47.692;9.400;2022-11-11T03:19:49;11.77;;;6.45;;
28926;SDS011;16038;47.692;9.400;2022-11-11T03:22:15;11.60;;;6.75;;
28926;SDS011;16038;47.692;9.400;2022-11-11T03:24:40;9.38;;;5.60;;
28926;SDS011;16038;47.692;9.400;2022-11-11T03:27:24;11.07;;;6.43;;
28926;SDS011;16038;47.692;9.400;2022-11-11T03:29:49;13.70;;;6.45;;
28926;SDS011;16038;47.692;9.400;2022-11-11T03:32:15;10.77;;;6.15;;
28926;SDS011;16038;47.692;9.400;2022-11-11T03:34:40;8.82;;;5.70;;
28926;SDS011;16038;47.692;9.400;2022-11-11T03:37:07;9.00;;;5.25;;
28926;SDS011;16038;47.692;9.400;2022-11-11T03:39:53;10.18;;;6.22;;
28926;SDS011;16038;47.692;9.400;2022-11-11T03:42:18;10.35;;;6.07;;
28926;SDS011;16038;47.692;9.400;2022-11-11T03:44:43;8.23;;;5.47;;
28926;SDS011;16038;47.692;9.400;2022-11-11T03:47:09;9.65;;;5.53;;
28926;SDS011;16038;47.692;9.400;2022-11-11T03:49:34;8.05;;;5.80;;
28926;SDS011;16038;47.692;9.400;2022-11-11T03:52:00;9.88;;;5.65;;
28926;SDS011;16038;47.692;9.400;2022-11-11T03:54:25;8.90;;;5.78;;
28926;SDS011;16038;47.692;9.400;2022-11-11T03:56:50;11.23;;;6.63;;
28926;SDS011;16038;47.692;9.400;2022-11-11T03:59:17;11.30;;;5.65;;
28926;SDS011;16038;47.692;9.400;2022-11-11T04:01:42;9.35;;;6.50;;
28926;SDS011;16038;47.692;9.400;2022-11-11T04:04:27;9.00;;;6.07;;
28926;SDS011;16038;47.692;9.400;2022-11-11T04:07:11;12.25;;;5.80;;
28926;SDS011;16038;47.692;9.400;2022-11-11T04:09:54;8.23;;;5.38;;
28926;SDS011;16038;47.692;9.400;2022-11-11T04:12:39;9.70;;;6.05;;
28926;SDS011;16038;47.692;9.400;2022-11-11T04:15:25;11.23;;;5.50;;
28926;SDS011;16038;47.692;9.400;2022-11-11T04:18:09;11.40;;;5.10;;
28926;SDS011;16038;47.692;9.400;2022-11-11T04:20:34;12.57;;;5.63;;
28926;SDS011;16038;47.692;9.400;2022-11-11T04:23:18;7.53;;;5.45;;
28926;SDS011;16038;47.692;9.400;2022-11-11T04:25:44;9.20;;;5.55;;
28926;SDS011;16038;47.692;9.400;2022-11-11T04:28:17;7.95;;;4.70;;
28926;SDS011;16038;47.692;9.400;2022-11-11T04:31:01;8.18;;;5.05;;
28926;SDS011;16038;47.692;9.400;2022-11-11T04:33:27;10.70;;;4.82;;
28926;SDS011;16038;47.692;9.400;2022-11-11T04:35:52;11.55;;;5.10;;
28926;SDS011;16038;47.692;9.400;2022-11-11T04:38:18;10.82;;;5.03;;
28926;SDS011;16038;47.692;9.400;2022-11-11T04:41:01;10.77;;;5.35;;
28926;SDS011;16038;47.692;9.400;2022-11-11T04:43:27;7.75;;;5.28;;
28926;SDS011;16038;47.692;9.400;2022-11-11T04:45:59;7.80;;;5.53;;
28926;SDS011;16038;47.692;9.400;2022-11-11T04:48:25;12.43;;;5.47;;
28926;SDS011;16038;47.692;9.400;2022-11-11T04:50:51;7.93;;;5.68;;
28926;SDS011;16038;47.692;9.400;2022-11-11T04:53:18;10.27;;;6.10;;
28926;SDS011;16038;47.692;9.400;2022-11-11T04:55:43;10.35;;;6.18;;
28926;SDS011;16038;47.692;9.400;2022-11-11T04:58:32;12.48;;;6.50;;
28926;SDS011;16038;47.692;9.400;2022-11-11T05:00:58;13.57;;;7.63;;
28926;SDS011;16038;47.692;9.400;2022-11-11T05:03:24;11.95;;;7.13;;
28926;SDS011;16038;47.692;9.400;2022-11-11T05:05:54;11.93;;;6.90;;
28926;SDS011;16038;47.692;9.400;2022-11-11T05:08:43;14.10;;;7.70;;
28926;SDS011;16038;47.692;9.400;2022-11-11T05:11:33;11.18;;;7.38;;
28926;SDS011;16038;47.692;9.400;2022-11-11T05:14:00;15.13;;;7.97;;
28926;SDS011;16038;47.692;9.400;2022-11-11T05:16:50;10.43;;;6.95;;
28926;SDS011;16038;47.692;9.400;2022-11-11T05:19:39;11.07;;;7.38;;
28926;SDS011;16038;47.692;9.400;2022-11-11T05:25:05;13.80;;;7.50;;
28926;SDS011;16038;47.692;9.400;2022-11-11T05:27:52;10.82;;;7.90;;
28926;SDS011;16038;47.692;9.400;2022-11-11T05:30:19;12.23;;;7.45;;
28926;SDS011;16038;47.692;9.400;2022-11-11T05:32:45;18.10;;;8.70;;
28926;SDS011;16038;47.692;9.400;2022-11-11T05:35:11;13.55;;;7.95;;
28926;SDS011;16038;47.692;9.400;2022-11-11T05:37:37;14.27;;;7.88;;
28926;SDS011;16038;47.692;9.400;2022-11-11T05:40:03;15.93;;;8.43;;
28926;SDS011;16038;47.692;9.400;2022-11-11T05:42:29;15.05;;;8.57;;
28926;SDS011;16038;47.692;9.400;2022-11-11T05:44:54;14.70;;;8.95;;
28926;SDS011;16038;47.692;9.400;2022-11-11T05:47:20;15.40;;;9.40;;
28926;SDS011;16038;47.692;9.400;2022-11-11T05:49:45;14.57;;;8.32;;
28926;SDS011;16038;47.692;9.400;2022-11-11T05:52:11;16.17;;;9.68;;
28926;SDS011;16038;47.692;9.400;2022-11-11T05:54:38;20.73;;;10.50;;
28926;SDS011;16038;47.692;9.400;2022-11-11T05:57:04;27.35;;;11.40;;
28926;SDS011;16038;47.692;9.400;2022-11-11T05:59:29;17.35;;;11.10;;
28926;SDS011;16038;47.692;9.400;2022-11-11T06:01:55;19.30;;;11.65;;
28926;SDS011;16038;47.692;9.400;2022-11-11T06:04:21;15.05;;;10.63;;
28926;SDS011;16038;47.692;9.400;2022-11-11T06:06:46;19.15;;;11.90;;
28926;SDS011;16038;47.692;9.400;2022-11-11T06:09:12;19.77;;;11.40;;
28926;SDS011;16038;47.692;9.400;2022-11-11T06:11:37;20.45;;;10.35;;
28926;SDS011;16038;47.692;9.400;2022-11-11T06:14:03;19.42;;;10.30;;
28926;SDS011;16038;47.692;9.400;2022-11-11T06:16:29;17.48;;;10.75;;
28926;SDS011;16038;47.692;9.400;2022-11-11T06:18:55;17.23;;;10.70;;
28926;SDS011;16038;47.692;9.400;2022-11-11T06:21:21;18.98;;;11.20;;
28926;SDS011;16038;47.692;9.400;2022-11-11T06:23:46;19.75;;;10.95;;
28926;SDS011;16038;47.692;9.400;2022-11-11T06:26:12;20.75;;;11.73;;
28926;SDS011;16038;47.692;9.400;2022-11-11T06:28:48;17.27;;;11.25;;
28926;SDS011;16038;47.692;9.400;2022-11-11T06:31:19;17.52;;;10.88;;
28926;SDS011;16038;47.692;9.400;2022-11-11T06:33:45;21.73;;;12.02;;
28926;SDS011;16038;47.692;9.400;2022-11-11T06:36:11;26.02;;;13.10;;
28926;SDS011;16038;47.692;9.400;2022-11-11T06:38:38;24.00;;;12.38;;
28926;SDS011;16038;47.692;9.400;2022-11-11T06:41:05;25.00;;;13.20;;
28926;SDS011;16038;47.692;9.400;2022-11-11T06:43:31;25.75;;;13.25;;
28926;SDS011;16038;47.692;9.400;2022-11-11T06:45:56;23.20;;;13.07;;
28926;SDS011;16038;47.692;9.400;2022-11-11T06:48:23;29.13;;;14.43;;
28926;SDS011;16038;47.692;9.400;2022-11-11T06:50:50;22.35;;;12.63;;
28926;SDS011;16038;47.692;9.400;2022-11-11T06:53:16;25.02;;;13.18;;
28926;SDS011;16038;47.692;9.400;2022-11-11T06:55:43;22.92;;;12.90;;
28926;SDS011;16038;47.692;9.400;2022-11-11T06:58:16;24.65;;;13.00;;
28926;SDS011;16038;47.692;9.400;2022-11-11T07:00:44;20.23;;;11.85;;
28926;SDS011;16038;47.692;9.400;2022-11-11T07:03:11;23.60;;;12.02;;
28926;SDS011;16038;47.692;9.400;2022-11-11T07:05:38;25.38;;;13.43;;
28926;SDS011;16038;47.692;9.400;2022-11-11T07:08:05;23.73;;;12.88;;
28926;SDS011;16038;47.692;9.400;2022-11-11T07:10:34;26.98;;;13.00;;
28926;SDS011;16038;47.692;9.400;2022-11-11T07:13:03;29.83;;;14.60;;
28926;SDS011;16038;47.692;9.400;2022-11-11T07:15:28;32.42;;;17.27;;
28926;SDS011;16038;47.692;9.400;2022-11-11T07:17:54;27.38;;;15.38;;
28926;SDS011;16038;47.692;9.400;2022-11-11T07:20:19;24.08;;;12.85;;
28926;SDS011;16038;47.692;9.400;2022-11-11T07:22:45;22.02;;;13.88;;
28926;SDS011;16038;47.692;9.400;2022-11-11T07:25:11;21.85;;;12.43;;
28926;SDS011;16038;47.692;9.400;2022-11-11T07:27:37;25.80;;;13.00;;
28926;SDS011;16038;47.692;9.400;2022-11-11T07:30:04;20.35;;;11.95;;
28926;SDS011;16038;47.692;9.400;2022-11-11T07:32:30;23.33;;;12.25;;
28926;SDS011;16038;47.692;9.400;2022-11-11T07:34:57;22.42;;;11.57;;
28926;SDS011;16038;47.692;9.400;2022-11-11T07:37:22;16.35;;;10.95;;
28926;SDS011;16038;47.692;9.400;2022-11-11T07:39:47;23.02;;;11.45;;
28926;SDS011;16038;47.692;9.400;2022-11-11T07:42:13;19.40;;;10.73;;
28926;SDS011;16038;47.692;9.400;2022-11-11T07:44:39;21.90;;;11.18;;
28926;SDS011;16038;47.692;9.400;2022-11-11T07:47:05;18.35;;;11.00;;
28926;SDS011;16038;47.692;9.400;2022-11-11T07:49:31;22.23;;;12.75;;
28926;SDS011;16038;47.692;9.400;2022-11-11T07:51:56;20.23;;;11.82;;
28926;SDS011;16038;47.692;9.400;2022-11-11T07:54:22;17.90;;;10.07;;
28926;SDS011;16038;47.692;9.400;2022-11-11T07:56:47;20.35;;;9.90;;
28926;SDS011;16038;47.692;9.400;2022-11-11T07:59:13;23.48;;;10.48;;
28926;SDS011;16038;47.692;9.400;2022-11-11T08:01:38;16.83;;;10.48;;
28926;SDS011;16038;47.692;9.400;2022-11-11T08:04:03;25.25;;;15.63;;
28926;SDS011;16038;47.692;9.400;2022-11-11T08:06:29;28.58;;;13.43;;
28926;SDS011;16038;47.692;9.400;2022-11-11T08:08:55;27.15;;;13.68;;
28926;SDS011;16038;47.692;9.400;2022-11-11T08:11:20;27.73;;;16.40;;
28926;SDS011;16038;47.692;9.400;2022-11-11T08:14:05;24.77;;;14.27;;
28926;SDS011;16038;47.692;9.400;2022-11-11T08:16:31;46.70;;;25.52;;
28926;SDS011;16038;47.692;9.400;2022-11-11T08:18:57;32.53;;;16.10;;
28926;SDS011;16038;47.692;9.400;2022-11-11T08:21:23;59.28;;;37.60;;
28926;SDS011;16038;47.692;9.400;2022-11-11T08:23:49;43.55;;;23.88;;
28926;SDS011;16038;47.692;9.400;2022-11-11T08:26:16;40.03;;;27.00;;
28926;SDS011;16038;47.692;9.400;2022-11-11T08:28:42;31.27;;;17.80;;
28926;SDS011;16038;47.692;9.400;2022-11-11T08:31:07;28.08;;;17.10;;
28926;SDS011;16038;47.692;9.400;2022-11-11T08:33:34;29.95;;;16.42;;
28926;SDS011;16038;47.692;9.400;2022-11-11T08:36:00;29.27;;;16.40;;
28926;SDS011;16038;47.692;9.400;2022-11-11T08:38:26;29.15;;;16.25;;
28926;SDS011;16038;47.692;9.400;2022-11-11T08:40:52;37.95;;;16.60;;
28926;SDS011;16038;47.692;9.400;2022-11-11T08:43:18;31.88;;;16.40;;
28926;SDS011;16038;47.692;9.400;2022-11-11T08:45:44;32.33;;;17.17;;
28926;SDS011;16038;47.692;9.400;2022-11-11T08:48:09;38.78;;;21.95;;
28926;SDS011;16038;47.692;9.400;2022-11-11T08:50:38;35.40;;;22.13;;
28926;SDS011;16038;47.692;9.400;2022-11-11T08:53:06;35.70;;;22.25;;
28926;SDS011;16038;47.692;9.400;2022-11-11T08:55:33;33.20;;;21.73;;
28926;SDS011;16038;47.692;9.400;2022-11-11T08:58:00;29.10;;;16.67;;
28926;SDS011;16038;47.692;9.400;2022-11-11T09:00:27;29.08;;;16.80;;
28926;SDS011;16038;47.692;9.400;2022-11-11T09:02:53;30.95;;;17.45;;
28926;SDS011;16038;47.692;9.400;2022-11-11T09:05:18;35.53;;;19.73;;
28926;SDS011;16038;47.692;9.400;2022-11-11T09:07:44;35.50;;;19.30;;
28926;SDS011;16038;47.692;9.400;2022-11-11T09:10:10;34.55;;;20.00;;
28926;SDS011;16038;47.692;9.400;2022-11-11T09:12:36;33.08;;;18.33;;
28926;SDS011;16038;47.692;9.400;2022-11-11T09:15:01;35.22;;;18.98;;
28926;SDS011;16038;47.692;9.400;2022-11-11T09:17:27;34.38;;;19.67;;
28926;SDS011;16038;47.692;9.400;2022-11-11T09:19:53;37.25;;;19.88;;
28926;SDS011;16038;47.692;9.400;2022-11-11T09:22:18;37.97;;;18.42;;
28926;SDS011;16038;47.692;9.400;2022-11-11T09:24:43;39.20;;;24.65;;
28926;SDS011;16038;47.692;9.400;2022-11-11T09:27:09;35.17;;;19.42;;
28926;SDS011;16038;47.692;9.400;2022-11-11T09:29:35;40.72;;;19.98;;
28926;SDS011;16038;47.692;9.400;2022-11-11T09:32:01;38.75;;;20.42;;
28926;SDS011;16038;47.692;9.400;2022-11-11T09:34:27;38.60;;;19.85;;
28926;SDS011;16038;47.692;9.400;2022-11-11T09:36:53;42.55;;;20.23;;
28926;SDS011;16038;47.692;9.400;2022-11-11T09:39:18;37.75;;;21.23;;
28926;SDS011;16038;47.692;9.400;2022-11-11T09:41:56;41.47;;;22.88;;
28926;SDS011;16038;47.692;9.400;2022-11-11T09:57:48;36.00;;;18.98;;
28926;SDS011;16038;47.692;9.400;2022-11-11T10:00:31;29.17;;;18.10;;
28926;SDS011;16038;47.692;9.400;2022-11-11T10:03:04;29.95;;;17.35;;
28926;SDS011;16038;47.692;9.400;2022-11-11T10:05:39;29.70;;;17.23;;
28926;SDS011;16038;47.692;9.400;2022-11-11T10:08:26;28.45;;;17.20;;
28926;SDS011;16038;47.692;9.400;2022-11-11T10:10:54;41.58;;;20.75;;
28926;SDS011;16038;47.692;9.400;2022-11-11T10:13:30;37.28;;;22.00;;
28926;SDS011;16038;47.692;9.400;2022-11-11T10:19:09;36.03;;;20.58;;
28926;SDS011;16038;47.692;9.400;2022-11-11T10:22:01;37.90;;;19.77;;
28926;SDS011;16038;47.692;9.400;2022-11-11T10:24:40;35.80;;;19.35;;
28926;SDS011;16038;47.692;9.400;2022-11-11T10:27:15;37.75;;;20.13;;
28926;SDS011;16038;47.692;9.400;2022-11-11T10:29:43;28.13;;;17.20;;
28926;SDS011;16038;47.692;9.400;2022-11-11T10:32:11;33.35;;;18.42;;
28926;SDS011;16038;47.692;9.400;2022-11-11T10:34:43;33.60;;;18.02;;
28926;SDS011;16038;47.692;9.400;2022-11-11T10:37:19;29.40;;;15.38;;
28926;SDS011;16038;47.692;9.400;2022-11-11T10:42:28;25.23;;;15.20;;
28926;SDS011;16038;47.692;9.400;2022-11-11T10:44:55;26.40;;;15.00;;
28926;SDS011;16038;47.692;9.400;2022-11-11T10:47:39;35.72;;;16.58;;
28926;SDS011;16038;47.692;9.400;2022-11-11T10:50:20;30.95;;;17.15;;
28926;SDS011;16038;47.692;9.400;2022-11-11T10:52:49;26.10;;;16.08;;
28926;SDS011;16038;47.692;9.400;2022-11-11T10:55:26;31.10;;;16.88;;
28926;SDS011;16038;47.692;9.400;2022-11-11T10:57:59;32.05;;;16.98;;
28926;SDS011;16038;47.692;9.400;2022-11-11T11:00:45;27.27;;;16.75;;
28926;SDS011;16038;47.692;9.400;2022-11-11T11:03:22;27.75;;;15.82;;
28926;SDS011;16038;47.692;9.400;2022-11-11T11:05:53;36.30;;;19.27;;
28926;SDS011;16038;47.692;9.400;2022-11-11T11:08:22;33.83;;;19.27;;
28926;SDS011;16038;47.692;9.400;2022-11-11T11:13:29;33.83;;;16.52;;
28926;SDS011;16038;47.692;9.400;2022-11-11T11:16:05;31.55;;;17.88;;
28926;SDS011;16038;47.692;9.400;2022-11-11T11:18:36;26.15;;;16.05;;
28926;SDS011;16038;47.692;9.400;2022-11-11T11:21:05;29.38;;;16.92;;
28926;SDS011;16038;47.692;9.400;2022-11-11T11:23:39;29.77;;;16.52;;
28926;SDS011;16038;47.692;9.400;2022-11-11T11:26:07;28.45;;;16.13;;
28926;SDS011;16038;47.692;9.400;2022-11-11T11:28:35;27.92;;;17.17;;
28926;SDS011;16038;47.692;9.400;2022-11-11T11:31:36;29.95;;;16.92;;
28926;SDS011;16038;47.692;9.400;2022-11-11T11:34:03;28.55;;;16.30;;
28926;SDS011;16038;47.692;9.400;2022-11-11T11:36:29;34.78;;;16.33;;
28926;SDS011;16038;47.692;9.400;2022-11-11T11:38:55;32.25;;;17.42;;
28926;SDS011;16038;47.692;9.400;2022-11-11T11:44:24;32.47;;;17.75;;
28926;SDS011;16038;47.692;9.400;2022-11-11T11:46:50;27.15;;;17.17;;
28926;SDS011;16038;47.692;9.400;2022-11-11T11:57:11;29.73;;;17.38;;
28926;SDS011;16038;47.692;9.400;2022-11-11T12:00:02;28.98;;;16.05;;
28926;SDS011;16038;47.692;9.400;2022-11-11T12:02:49;30.77;;;17.25;;
28926;SDS011;16038;47.692;9.400;2022-11-11T12:05:39;28.02;;;16.45;;
28926;SDS011;16038;47.692;9.400;2022-11-11T12:13:24;32.72;;;18.08;;
28926;SDS011;16038;47.692;9.400;2022-11-11T12:21:59;29.85;;;16.90;;
28926;SDS011;16038;47.692;9.400;2022-11-11T12:24:50;29.27;;;18.10;;
28926;SDS011;16038;47.692;9.400;2022-11-11T12:54:27;30.80;;;16.70;;
28926;SDS011;16038;47.692;9.400;2022-11-11T12:57:04;33.63;;;18.17;;
28926;SDS011;16038;47.692;9.400;2022-11-11T13:10:38;30.77;;;16.83;;
28926;SDS011;16038;47.692;9.400;2022-11-11T13:13:19;31.02;;;18.60;;
28926;SDS011;16038;47.692;9.400;2022-11-11T13:16:03;31.73;;;17.77;;
28926;SDS011;16038;47.692;9.400;2022-11-11T13:21:30;32.38;;;16.73;;
28926;SDS011;16038;47.692;9.400;2022-11-11T13:24:07;30.00;;;17.67;;
28926;SDS011;16038;47.692;9.400;2022-11-11T13:26:42;35.60;;;18.50;;
28926;SDS011;16038;47.692;9.400;2022-11-11T13:31:58;33.75;;;18.58;;
28926;SDS011;16038;47.692;9.400;2022-11-11T13:34:27;28.55;;;17.52;;
28926;SDS011;16038;47.692;9.400;2022-11-11T13:36:58;32.50;;;18.98;;
28926;SDS011;16038;47.692;9.400;2022-11-11T13:39:37;33.90;;;18.30;;
28926;SDS011;16038;47.692;9.400;2022-11-11T13:42:09;28.67;;;16.65;;
28926;SDS011;16038;47.692;9.400;2022-11-11T13:47:13;29.30;;;17.35;;
28926;SDS011;16038;47.692;9.400;2022-11-11T13:52:27;49.63;;;25.83;;
28926;SDS011;16038;47.692;9.400;2022-11-11T13:55:01;31.17;;;16.35;;
28926;SDS011;16038;47.692;9.400;2022-11-11T13:57:30;28.00;;;15.95;;
28926;SDS011;16038;47.692;9.400;2022-11-11T14:00:00;32.35;;;16.27;;
28926;SDS011;16038;47.692;9.400;2022-11-11T14:02:30;31.45;;;17.02;;
28926;SDS011;16038;47.692;9.400;2022-11-11T14:18:05;28.33;;;16.50;;
28926;SDS011;16038;47.692;9.400;2022-11-11T14:20:35;27.20;;;15.80;;
28926;SDS011;16038;47.692;9.400;2022-11-11T14:28:35;32.33;;;20.55;;
28926;SDS011;16038;47.692;9.400;2022-11-11T14:33:54;33.92;;;17.38;;
28926;SDS011;16038;47.692;9.400;2022-11-11T14:36:36;30.55;;;17.45;;
28926;SDS011;16038;47.692;9.400;2022-11-11T14:39:29;27.15;;;17.17;;
28926;SDS011;16038;47.692;9.400;2022-11-11T14:41:59;28.27;;;16.83;;
28926;SDS011;16038;47.692;9.400;2022-11-11T14:52:37;29.65;;;17.10;;
28926;SDS011;16038;47.692;9.400;2022-11-11T15:00:48;28.05;;;16.80;;
28926;SDS011;16038;47.692;9.400;2022-11-11T15:03:28;33.67;;;15.63;;
28926;SDS011;16038;47.692;9.400;2022-11-11T15:06:02;31.95;;;17.65;;
28926;SDS011;16038;47.692;9.400;2022-11-11T15:08:37;32.15;;;18.05;;
28926;SDS011;16038;47.692;9.400;2022-11-11T15:14:02;29.17;;;17.23;;
28926;SDS011;16038;47.692;9.400;2022-11-11T15:23:01;34.90;;;18.02;;
28926;SDS011;16038;47.692;9.400;2022-11-11T15:38:57;33.78;;;18.85;;
28926;SDS011;16038;47.692;9.400;2022-11-11T15:41:31;34.45;;;16.73;;
28926;SDS011;16038;47.692;9.400;2022-11-11T15:44:00;38.28;;;19.52;;
28926;SDS011;16038;47.692;9.400;2022-11-11T15:46:27;37.25;;;18.60;;
28926;SDS011;16038;47.692;9.400;2022-11-11T15:48:54;36.83;;;18.73;;
28926;SDS011;16038;47.692;9.400;2022-11-11T15:51:30;32.00;;;18.45;;
28926;SDS011;16038;47.692;9.400;2022-11-11T15:56:43;32.58;;;18.17;;
28926;SDS011;16038;47.692;9.400;2022-11-11T16:01:41;33.17;;;19.38;;
28926;SDS011;16038;47.692;9.400;2022-11-11T16:04:07;31.80;;;17.80;;
28926;SDS011;16038;47.692;9.400;2022-11-11T16:06:34;34.90;;;19.67;;
28926;SDS011;16038;47.692;9.400;2022-11-11T16:09:01;36.85;;;19.15;;
28926;SDS011;16038;47.692;9.400;2022-11-11T16:11:27;34.05;;;19.25;;
28926;SDS011;16038;47.692;9.400;2022-11-11T16:13:55;36.17;;;19.02;;
28926;SDS011;16038;47.692;9.400;2022-11-11T16:16:22;31.00;;;17.85;;
28926;SDS011;16038;47.692;9.400;2022-11-11T16:21:25;35.67;;;18.75;;
28926;SDS011;16038;47.692;9.400;2022-11-11T16:23:56;37.33;;;20.25;;
28926;SDS011;16038;47.692;9.400;2022-11-11T16:26:23;35.63;;;20.02;;
28926;SDS011;16038;47.692;9.400;2022-11-11T16:28:53;36.88;;;20.75;;
28926;SDS011;16038;47.692;9.400;2022-11-11T16:33:50;37.42;;;19.27;;
28926;SDS011;16038;47.692;9.400;2022-11-11T16:36:15;34.90;;;18.75;;
28926;SDS011;16038;47.692;9.400;2022-11-11T16:38:41;38.25;;;20.25;;
28926;SDS011;16038;47.692;9.400;2022-11-11T16:41:21;36.65;;;20.50;;
28926;SDS011;16038;47.692;9.400;2022-11-11T16:43:47;38.97;;;20.02;;
28926;SDS011;16038;47.692;9.400;2022-11-11T16:46:13;36.17;;;19.30;;
28926;SDS011;16038;47.692;9.400;2022-11-11T16:49:00;40.72;;;20.67;;
28926;SDS011;16038;47.692;9.400;2022-11-11T16:51:47;36.03;;;19.92;;
28926;SDS011;16038;47.692;9.400;2022-11-11T16:54:15;38.35;;;19.67;;
28926;SDS011;16038;47.692;9.400;2022-11-11T16:56:48;42.33;;;22.00;;
28926;SDS011;16038;47.692;9.400;2022-11-11T16:59:22;40.70;;;20.55;;
28926;SDS011;16038;47.692;9.400;2022-11-11T17:01:49;40.42;;;20.85;;
28926;SDS011;16038;47.692;9.400;2022-11-11T17:04:15;38.35;;;20.50;;
28926;SDS011;16038;47.692;9.400;2022-11-11T17:06:47;40.05;;;20.95;;
28926;SDS011;16038;47.692;9.400;2022-11-11T17:09:36;40.75;;;21.10;;
28926;SDS011;16038;47.692;9.400;2022-11-11T17:12:08;41.92;;;21.85;;
28926;SDS011;16038;47.692;9.400;2022-11-11T17:14:36;43.20;;;22.52;;
28926;SDS011;16038;47.692;9.400;2022-11-11T17:17:03;41.17;;;21.63;;
28926;SDS011;16038;47.692;9.400;2022-11-11T17:19:30;39.97;;;22.20;;
28926;SDS011;16038;47.692;9.400;2022-11-11T17:22:06;41.38;;;21.27;;
28926;SDS011;16038;47.692;9.400;2022-11-11T17:24:34;44.20;;;24.83;;
28926;SDS011;16038;47.692;9.400;2022-11-11T17:27:01;60.15;;;31.35;;
28926;SDS011;16038;47.692;9.400;2022-11-11T17:29:27;55.22;;;29.13;;
28926;SDS011;16038;47.692;9.400;2022-11-11T17:31:52;51.13;;;27.98;;
28926;SDS011;16038;47.692;9.400;2022-11-11T17:34:18;55.22;;;27.88;;
28926;SDS011;16038;47.692;9.400;2022-11-11T17:36:43;53.72;;;27.17;;
28926;SDS011;16038;47.692;9.400;2022-11-11T17:39:09;53.03;;;27.38;;
28926;SDS011;16038;47.692;9.400;2022-11-11T17:41:34;55.53;;;26.67;;
28926;SDS011;16038;47.692;9.400;2022-11-11T17:43:59;59.13;;;27.27;;
28926;SDS011;16038;47.692;9.400;2022-11-11T17:46:25;54.97;;;29.42;;